Flight Track Log - Related Links

Times and Time Zones

All times are in EDT time to prevent confusion due to time zone crossing. See the SWA3408 flight status page for this flight to view local times or setup timezone preferences in your user account.

Time Position Orientation Groundspeed Altitude Reporting Facility
EDT Latitude Longitude Course Direction KTS MPH feet Rate Location/Type
Mon 11:44:16 AM 33.4333 -111.9833 90° East 172 198 1,800  Level Phoenix TRACON
Mon 11:45:46 AM 33.4333 -111.8833 90° East 215 247 4,900 2,120 Climbing Phoenix TRACON
Mon 11:46:46 AM 33.4000 -111.8500 140° Southeast 239 275 7,100 1,872 Climbing Phoenix TRACON
Mon 11:48:07 AM 33.3686 -111.9492 249° West 275 316 9,300 1,552 Climbing Albuquerque Center
Mon 11:49:09 AM 33.3500 -112.0492 257° West 313 360 10,800 1,839 Climbing Albuquerque Center
Mon 11:50:11 AM 33.3653 -112.1628 279° West 346 398 13,100 2,032 Climbing Albuquerque Center
Mon 11:51:13 AM 33.3800 -112.2797 279° West 353 406 15,000 1,887 Climbing Albuquerque Center
Mon 11:52:15 AM 33.3967 -112.4011 279° West 365 420 17,000 1,839 Climbing Albuquerque Center
Mon 11:53:17 AM 33.4158 -112.5475 279° West 371 427 18,800 1,597 Climbing Albuquerque Center
Mon 11:54:19 AM 33.4328 -112.6733 279° West 382 440 20,300 1,452 Climbing Albuquerque Center
Mon 11:55:21 AM 33.4503 -112.8008 279° West 387 445 21,800 1,403 Climbing Albuquerque Center
Mon 11:56:23 AM 33.4731 -112.9294 282° West 393 452 23,200 1,306 Climbing Albuquerque Center
Mon 11:57:25 AM 33.4986 -113.0586 283° West 399 459 24,500 1,210 Climbing Albuquerque Center
Mon 11:58:27 AM 33.5286 -113.2158 283° West 404 465 25,700 1,065 Climbing Albuquerque Center
Mon 11:59:29 AM 33.5544 -113.3492 283° West 410 472 26,700 1,065 Climbing Albuquerque Center
Mon 12:00:31 PM 33.5794 -113.4850 282° West 416 479 27,900 1,355 Climbing Albuquerque Center
Mon 12:01:33 PM 33.6053 -113.6219 283° West 420 483 29,500 1,452 Climbing Albuquerque Center
Mon 12:02:35 PM 33.6311 -113.7633 282° West 418 481 30,900 1,548 Climbing Albuquerque Center
Mon 12:03:37 PM 33.6558 -113.8969 283° West 413 475 32,700 1,742 Climbing Albuquerque Center
Mon 12:04:39 PM 33.6808 -114.0247 283° West 400 460 34,500 1,258 Climbing Albuquerque Center
Mon 12:05:41 PM 33.7122 -114.1739 284° West 387 445 35,300 726 Climbing Albuquerque Center
Mon 12:06:43 PM 33.7361 -114.2928 284° West 388 447 36,000 339 Climbing Albuquerque Center
Mon 12:07:45 PM 33.7617 -114.4200 284° West 391 450 36,000  Level Albuquerque Center
Mon 12:08:47 PM 33.7861 -114.5478 283° West 393 452 36,000  Level Albuquerque Center
Mon 12:09:50 PM 33.8167 -114.6961 284° West 393 452 36,000  Level Los Angeles Center
Mon 12:10:52 PM 33.8419 -114.8244 283° West 394 453 36,000  Level Los Angeles Center
Mon 12:11:54 PM 33.8667 -114.9511 283° West 391 450 36,000  Level Los Angeles Center
Mon 12:12:56 PM 33.8908 -115.0789 283° West 392 451 36,000  Level Los Angeles Center
Mon 12:13:58 PM 33.9203 -115.2311 283° West 391 450 36,000  Level Los Angeles Center
Mon 12:15:00 PM 33.9450 -115.3583 283° West 391 450 36,000  Level Los Angeles Center
Mon 12:16:02 PM 33.9689 -115.4853 283° West 391 450 36,000  Level Los Angeles Center
Mon 12:17:04 PM 33.9928 -115.6108 283° West 389 448 36,000  Level Los Angeles Center
Mon 12:18:06 PM 34.0167 -115.7375 283° West 389 448 36,000  Level Los Angeles Center
Mon 12:19:08 PM 34.0450 -115.8903 283° West 390 449 36,000  Level Los Angeles Center
Mon 12:20:11 PM 34.0683 -116.0153 283° West 387 445 36,000  Level Los Angeles Center
Mon 12:21:13 PM 34.0919 -116.1431 283° West 390 449 36,000  Level Los Angeles Center
Mon 12:22:15 PM 34.1147 -116.2706 282° West 391 450 36,000  Level Los Angeles Center
Mon 12:23:17 PM 34.1408 -116.4125 283° West 398 458 36,000  Level Los Angeles Center
Mon 12:24:19 PM 34.1642 -116.5394 283° West 391 450 36,000  Level Los Angeles Center
Mon 12:25:21 PM 34.1867 -116.6672 282° West 389 448 36,000  Level Los Angeles Center
Mon 12:26:23 PM 34.2106 -116.7964 283° West 393 452 36,000  Level Los Angeles Center
Mon 12:27:25 PM 34.2328 -116.9247 282° West 392 451 36,000  Level Los Angeles Center
Mon 12:28:27 PM 34.2600 -117.0789 282° West 391 450 36,000  Level Los Angeles Center
Mon 12:29:29 PM 34.2825 -117.2017 283° West 390 449 36,000  Level Los Angeles Center
Mon 12:30:31 PM 34.3042 -117.3308 282° West 393 452 36,000  Level Los Angeles Center
Mon 12:31:33 PM 34.3267 -117.4589 282° West 393 452 36,000  Level Los Angeles Center
Mon 12:32:35 PM 34.3519 -117.6150 281° West 396 456 36,000  Level Los Angeles Center
Mon 12:33:37 PM 34.3747 -117.7450 282° West 397 457 36,000  Level Los Angeles Center
Mon 12:34:39 PM 34.3939 -117.8606 281° West 399 459 36,000  Level Los Angeles Center
Mon 12:35:41 PM 34.4222 -118.0169 282° West 398 458 36,000  Level Los Angeles Center
Mon 12:36:44 PM 34.4836 -118.1375 302° West 428 493 36,000  Level Los Angeles Center
Mon 12:37:46 PM 34.5558 -118.2667 304° West 427 491 36,000  Level Los Angeles Center
Mon 12:38:48 PM 34.6203 -118.3822 304° West 421 484 36,000  Level Los Angeles Center
Mon 12:39:50 PM 34.6847 -118.4989 304° West 419 482 36,000  Level Los Angeles Center
Mon 12:40:52 PM 34.7489 -118.6167 304° West 419 482 36,000  Level Los Angeles Center
Mon 12:41:54 PM 34.8139 -118.7339 304° West 420 483 36,000  Level Los Angeles Center
Mon 12:42:56 PM 34.8928 -118.8761 304° West 425 489 36,000  Level Los Angeles Center
Mon 12:43:58 PM 34.9569 -118.9933 304° West 417 480 36,000  Level Los Angeles Center
Mon 12:45:00 PM 35.0231 -119.1119 304° West 423 487 36,000  Level Los Angeles Center
Mon 12:46:03 PM 35.0883 -119.2319 304° West 426 490 36,000  Level Los Angeles Center
Mon 12:47:05 PM 35.1531 -119.3514 304° West 424 488 36,000  Level Los Angeles Center
Mon 12:48:07 PM 35.2178 -119.4708 304° West 424 488 36,000  Level Los Angeles Center
Mon 12:49:09 PM 35.2950 -119.6144 303° West 425 489 36,000  Level Los Angeles Center
Mon 12:50:11 PM 35.3592 -119.7342 303° West 424 488 36,000  Level Los Angeles Center
Mon 12:51:13 PM 35.4228 -119.8508 304° West 416 479 36,000  Level Los Angeles Center
Mon 12:52:15 PM 35.4869 -119.9708 303° West 420 483 36,000  Level Los Angeles Center
Mon 12:53:17 PM 35.5497 -120.0900 303° West 422 486 36,000  Level Los Angeles Center
Mon 12:54:19 PM 35.6214 -120.2272 303° West 422 486 36,000  Level Los Angeles Center
Mon 12:55:24 PM 35.6875 -120.3531 303° West 422 486 36,000  Level Oakland Center
Mon 12:56:25 PM 35.7425 -120.4781 298° West 420 483 36,000 -98 Level Oakland Center
Mon 12:57:27 PM 35.7989 -120.6022 299° West 419 482 35,800 -634 Descending Oakland Center
Mon 12:58:28 PM 35.8678 -120.7525 300° West 422 486 34,700 -1,033 Descending Oakland Center
Mon 12:59:29 PM 35.9231 -120.8781 299° West 420 483 33,700 -1,463 Descending Oakland Center
Mon 01:00:31 PM 35.9811 -121.0000 300° West 417 480 31,700 -2,488 Descending Oakland Center
Mon 01:01:32 PM 36.0750 -121.0908 322° Northwest 432 497 28,600 -2,361 Descending Oakland Center
Mon 01:02:33 PM 36.1750 -121.1761 325° Northwest 436 502 26,900 -1,951 Descending Oakland Center
Mon 01:03:35 PM 36.2706 -121.2581 325° Northwest 420 483 24,600 -2,244 Descending Oakland Center
Mon 01:04:36 PM 36.3625 -121.3375 325° Northwest 405 466 22,300 -2,164 Descending Oakland Center
Mon 01:05:37 PM 36.4517 -121.4156 325° Northwest 395 455 20,200 -2,098 Descending Oakland Center
Mon 01:06:39 PM 36.5422 -121.4836 329° Northwest 384 442 18,000 -2,146 Descending Oakland Center
Mon 01:07:40 PM 36.6628 -121.5267 344° North 373 429 15,800 -2,098 Descending Oakland Center
Mon 01:08:42 PM 36.7589 -121.5619 344° North 362 417 13,700 -1,805 Descending Oakland Center
Mon 01:09:43 PM 36.8408 -121.5931 343° North 350 403 12,100 -1,328 Descending Oakland Center
Mon 01:10:44 PM 36.9294 -121.6169 348° North 330 380 11,000 -1,268 Descending Oakland Center
Mon 01:11:46 PM 37.0294 -121.6147 North 303 349 9,500 -1,317 Descending Oakland Center
Mon 01:12:47 PM 37.1022 -121.6111 North 297 342 8,300 -1,415 Descending Oakland Center
Mon 01:13:49 PM 37.1683 -121.6511 334° Northwest 285 328 6,600 -1,610 Descending Oakland Center
Mon 01:14:50 PM 37.2206 -121.7364 308° West 280 322 5,000 -1,869 Descending Oakland Center
Mon 01:15:51 PM 37.2592 -121.8144 302° West 273 314 2,800 -1,463 Descending Oakland Center
Mon 01:16:53 PM 37.3028 -121.8631 318° Northwest 239 275 2,000 -1,024 Descending Oakland Center
Mon 01:17:54 PM 37.3378 -121.9017 319° Northwest 194 223 700 -1,279 Descending Oakland Center
Mon 01:20:00 PM 37.3500 -121.9167 North  Level FlightAware Approximate
Mon 01:27:00 PM 37.3627 -121.9291 North  Level Estimated

Login

Don't have an account? Register now (free) for customized features, flight alerts, and more!